Adams Landing, Vermont
Current Conditions -  °F | °C
As of 6:53 PM on Thursday 27 Nov 2014 (Local Time) from KPBG Reporting Station
Overcast Overcast  
Wind Chill: -6°   Ceiling: 3800
Heat Index: -3°   Visibility: 10mi
Dew Point: -6°   Wind: 5mph
Humidity: 81%   Direction: 290°WNW
Pressure: 30.04"   Gusts: NA
Location:  44.717°N, 73.3067°W
Report Text: KPBG 272353Z AUTO 29004KT 10SM OVC038 M03/M06 A3004 RMK AO2 SLP175 T10281056 11017 21028 53001
Loading
Personal Weather Stations






























Interactive Weather Map New forecast layout! Learn more

10-Day Weather Forecast

Advertisements
Track Severe Weather on mobile